sensor_id;sensor_type;location;lat;lon;timestamp;pressure;altitude;pressure_sealevel;temperature;humidity
84169;BME280;74295;50.146;8.794;2024-02-16T00:08:42;100544.75;;;9.98;87.53
84169;BME280;74295;50.146;8.794;2024-02-16T00:18:46;100535.47;;;9.94;88.32
84169;BME280;74295;50.146;8.794;2024-02-16T00:28:49;100525.34;;;9.90;88.31
84169;BME280;74295;50.146;8.794;2024-02-16T00:38:53;100516.53;;;9.94;88.30
84169;BME280;74295;50.146;8.794;2024-02-16T00:48:56;100511.69;;;9.85;88.96
84169;BME280;74295;50.146;8.794;2024-02-16T00:59:00;100505.94;;;9.81;88.52
84169;BME280;74295;50.146;8.794;2024-02-16T01:09:03;100512.75;;;9.72;88.58
84169;BME280;74295;50.146;8.794;2024-02-16T01:19:07;100504.06;;;9.59;88.96
84169;BME280;74295;50.146;8.794;2024-02-16T01:29:11;100511.34;;;9.58;88.68
84169;BME280;74295;50.146;8.794;2024-02-16T01:39:15;100516.41;;;9.55;88.70
84169;BME280;74295;50.146;8.794;2024-02-16T01:49:18;100511.72;;;9.50;89.13
84169;BME280;74295;50.146;8.794;2024-02-16T01:59:22;100512.06;;;9.54;89.67
84169;BME280;74295;50.146;8.794;2024-02-16T02:09:25;100503.34;;;9.40;89.44
84169;BME280;74295;50.146;8.794;2024-02-16T02:19:30;100497.34;;;9.27;89.37
84169;BME280;74295;50.146;8.794;2024-02-16T02:29:34;100503.88;;;9.08;89.85
84169;BME280;74295;50.146;8.794;2024-02-16T02:39:37;100497.41;;;8.97;90.57
84169;BME280;74295;50.146;8.794;2024-02-16T02:49:41;100481.16;;;8.86;90.87
84169;BME280;74295;50.146;8.794;2024-02-16T02:59:44;100475.75;;;8.86;90.93
84169;BME280;74295;50.146;8.794;2024-02-16T03:09:48;100483.50;;;8.94;90.33
84169;BME280;74295;50.146;8.794;2024-02-16T03:19:52;100478.78;;;8.89;90.78
84169;BME280;74295;50.146;8.794;2024-02-16T03:29:57;100497.16;;;8.87;90.25
84169;BME280;74295;50.146;8.794;2024-02-16T03:40:00;100498.50;;;8.78;90.52
84169;BME280;74295;50.146;8.794;2024-02-16T03:50:05;100500.38;;;8.66;91.37
84169;BME280;74295;50.146;8.794;2024-02-16T04:00:09;100506.25;;;8.63;91.12
84169;BME280;74295;50.146;8.794;2024-02-16T04:10:15;100503.19;;;8.71;91.42
84169;BME280;74295;50.146;8.794;2024-02-16T04:20:18;100511.72;;;8.86;91.27
84169;BME280;74295;50.146;8.794;2024-02-16T04:30:22;100517.97;;;8.98;90.25
84169;BME280;74295;50.146;8.794;2024-02-16T04:40:25;100529.13;;;8.90;90.75
84169;BME280;74295;50.146;8.794;2024-02-16T04:50:29;100530.88;;;8.85;90.32
84169;BME280;74295;50.146;8.794;2024-02-16T05:00:32;100512.41;;;8.82;90.62
84169;BME280;74295;50.146;8.794;2024-02-16T05:10:37;100520.53;;;8.82;90.87
84169;BME280;74295;50.146;8.794;2024-02-16T05:20:40;100541.75;;;8.78;90.72
84169;BME280;74295;50.146;8.794;2024-02-16T05:30:44;100531.59;;;8.92;90.59
84169;BME280;74295;50.146;8.794;2024-02-16T05:40:47;100516.53;;;8.84;91.42
84169;BME280;74295;50.146;8.794;2024-02-16T05:51:00;100513.47;;;8.92;91.53
84169;BME280;74295;50.146;8.794;2024-02-16T06:01:04;100521.50;;;8.99;91.65
84169;BME280;74295;50.146;8.794;2024-02-16T06:11:08;100526.47;;;9.02;91.71
84169;BME280;74295;50.146;8.794;2024-02-16T06:21:11;100543.59;;;8.96;91.81
84169;BME280;74295;50.146;8.794;2024-02-16T06:31:16;100547.59;;;8.93;92.40
84169;BME280;74295;50.146;8.794;2024-02-16T06:41:18;100541.59;;;8.91;92.17
84169;BME280;74295;50.146;8.794;2024-02-16T06:51:23;100555.94;;;8.92;92.01
84169;BME280;74295;50.146;8.794;2024-02-16T07:01:25;100564.63;;;8.94;91.51
84169;BME280;74295;50.146;8.794;2024-02-16T07:11:30;100563.13;;;8.98;91.31
84169;BME280;74295;50.146;8.794;2024-02-16T07:21:36;100568.34;;;9.22;91.36
84169;BME280;74295;50.146;8.794;2024-02-16T07:31:40;100592.53;;;9.47;90.61
84169;BME280;74295;50.146;8.794;2024-02-16T07:41:43;100596.66;;;9.61;90.17
84169;BME280;74295;50.146;8.794;2024-02-16T07:51:47;100600.56;;;9.76;89.46
84169;BME280;74295;50.146;8.794;2024-02-16T08:01:50;100605.06;;;10.17;88.16
84169;BME280;74295;50.146;8.794;2024-02-16T08:11:54;100608.84;;;10.79;86.44
84169;BME280;74295;50.146;8.794;2024-02-16T08:21:57;100608.88;;;11.23;83.95
84169;BME280;74295;50.146;8.794;2024-02-16T08:32:01;100610.38;;;11.31;84.10
84169;BME280;74295;50.146;8.794;2024-02-16T08:42:05;100620.66;;;11.73;83.52
84169;BME280;74295;50.146;8.794;2024-02-16T08:52:11;100634.81;;;12.08;81.44
84169;BME280;74295;50.146;8.794;2024-02-16T09:02:14;100633.28;;;12.34;79.27
84169;BME280;74295;50.146;8.794;2024-02-16T09:12:18;100638.28;;;12.42;79.53
84169;BME280;74295;50.146;8.794;2024-02-16T09:22:21;100651.09;;;12.63;78.79
84169;BME280;74295;50.146;8.794;2024-02-16T09:32:40;100667.03;;;12.76;78.20
84169;BME280;74295;50.146;8.794;2024-02-16T09:42:47;100669.50;;;12.77;77.97
84169;BME280;74295;50.146;8.794;2024-02-16T09:52:52;100673.09;;;13.00;77.30
84169;BME280;74295;50.146;8.794;2024-02-16T10:02:56;100673.38;;;13.25;76.16
84169;BME280;74295;50.146;8.794;2024-02-16T10:13:04;100679.78;;;13.62;75.15
84169;BME280;74295;50.146;8.794;2024-02-16T10:23:07;100689.94;;;13.98;72.93
84169;BME280;74295;50.146;8.794;2024-02-16T10:33:12;100702.31;;;14.15;71.57
84169;BME280;74295;50.146;8.794;2024-02-16T10:43:16;100703.97;;;14.48;69.36
84169;BME280;74295;50.146;8.794;2024-02-16T10:53:24;100715.19;;;14.51;69.20
84169;BME280;74295;50.146;8.794;2024-02-16T11:03:28;100708.94;;;14.56;69.06
84169;BME280;74295;50.146;8.794;2024-02-16T11:13:34;100708.25;;;14.75;68.31
84169;BME280;74295;50.146;8.794;2024-02-16T11:23:39;100700.47;;;14.99;67.58
84169;BME280;74295;50.146;8.794;2024-02-16T11:33:46;100697.84;;;15.34;65.93
84169;BME280;74295;50.146;8.794;2024-02-16T11:43:49;100691.91;;;15.52;65.68
84169;BME280;74295;50.146;8.794;2024-02-16T11:53:56;100694.38;;;15.49;64.42
84169;BME280;74295;50.146;8.794;2024-02-16T12:03:59;100688.66;;;15.55;65.27
84169;BME280;74295;50.146;8.794;2024-02-16T12:14:03;100688.44;;;15.92;62.83
84169;BME280;74295;50.146;8.794;2024-02-16T12:24:06;100690.63;;;15.85;63.54
84169;BME280;74295;50.146;8.794;2024-02-16T12:34:11;100691.44;;;15.80;63.70
84169;BME280;74295;50.146;8.794;2024-02-16T12:44:14;100707.53;;;15.67;63.14
84169;BME280;74295;50.146;8.794;2024-02-16T12:54:19;100706.72;;;15.61;62.35
84169;BME280;74295;50.146;8.794;2024-02-16T13:04:21;100706.75;;;15.66;63.17
84169;BME280;74295;50.146;8.794;2024-02-16T13:14:26;100691.97;;;15.82;62.34
84169;BME280;74295;50.146;8.794;2024-02-16T13:24:28;100699.09;;;15.78;63.19
84169;BME280;74295;50.146;8.794;2024-02-16T13:34:33;100693.63;;;15.98;63.42
84169;BME280;74295;50.146;8.794;2024-02-16T13:44:36;100689.81;;;15.84;64.00
84169;BME280;74295;50.146;8.794;2024-02-16T13:54:40;100691.69;;;15.69;64.88
84169;BME280;74295;50.146;8.794;2024-02-16T14:04:43;100692.25;;;15.66;65.47
84169;BME280;74295;50.146;8.794;2024-02-16T14:14:48;100704.53;;;15.63;66.01
84169;BME280;74295;50.146;8.794;2024-02-16T14:24:51;100702.06;;;15.67;66.49
84169;BME280;74295;50.146;8.794;2024-02-16T14:34:55;100719.56;;;15.71;66.41
84169;BME280;74295;50.146;8.794;2024-02-16T14:44:58;100735.16;;;15.70;67.03
84169;BME280;74295;50.146;8.794;2024-02-16T14:55:03;100740.03;;;15.58;67.47
84169;BME280;74295;50.146;8.794;2024-02-16T15:05:07;100749.84;;;15.44;67.87
84169;BME280;74295;50.146;8.794;2024-02-16T15:15:11;100756.59;;;15.32;68.80
84169;BME280;74295;50.146;8.794;2024-02-16T15:25:14;100770.47;;;15.20;69.46
84169;BME280;74295;50.146;8.794;2024-02-16T15:35:19;100796.34;;;15.07;69.97
84169;BME280;74295;50.146;8.794;2024-02-16T15:45:22;100797.34;;;14.96;70.87
84169;BME280;74295;50.146;8.794;2024-02-16T15:55:26;100813.97;;;14.90;72.26
84169;BME280;74295;50.146;8.794;2024-02-16T16:05:29;100820.56;;;14.62;75.71
84169;BME280;74295;50.146;8.794;2024-02-16T16:15:36;100835.91;;;14.37;77.12
84169;BME280;74295;50.146;8.794;2024-02-16T16:25:39;100836.13;;;14.30;77.79
84169;BME280;74295;50.146;8.794;2024-02-16T16:35:43;100844.44;;;14.19;78.72
84169;BME280;74295;50.146;8.794;2024-02-16T16:45:46;100846.53;;;14.12;78.93
84169;BME280;74295;50.146;8.794;2024-02-16T16:55:50;100855.75;;;14.06;79.63
84169;BME280;74295;50.146;8.794;2024-02-16T17:05:53;100879.16;;;14.02;79.98
84169;BME280;74295;50.146;8.794;2024-02-16T17:15:57;100899.19;;;13.91;80.52
84169;BME280;74295;50.146;8.794;2024-02-16T17:26:01;100910.00;;;13.86;80.27
84169;BME280;74295;50.146;8.794;2024-02-16T17:36:07;100936.38;;;13.80;81.07
84169;BME280;74295;50.146;8.794;2024-02-16T17:46:10;100949.38;;;13.73;82.99
84169;BME280;74295;50.146;8.794;2024-02-16T17:56:14;100965.72;;;13.35;86.25
84169;BME280;74295;50.146;8.794;2024-02-16T18:06:16;100974.09;;;13.17;87.53
84169;BME280;74295;50.146;8.794;2024-02-16T18:16:21;100981.31;;;13.07;88.73
84169;BME280;74295;50.146;8.794;2024-02-16T18:26:28;100992.78;;;12.97;89.06
84169;BME280;74295;50.146;8.794;2024-02-16T18:36:34;100999.59;;;12.83;90.81
84169;BME280;74295;50.146;8.794;2024-02-16T18:46:36;101004.50;;;12.81;90.94
84169;BME280;74295;50.146;8.794;2024-02-16T18:56:40;101013.94;;;12.78;91.22
84169;BME280;74295;50.146;8.794;2024-02-16T19:06:43;101023.91;;;12.73;91.79
84169;BME280;74295;50.146;8.794;2024-02-16T19:16:48;101039.91;;;12.69;92.62
84169;BME280;74295;50.146;8.794;2024-02-16T19:26:50;101045.84;;;12.66;92.90
84169;BME280;74295;50.146;8.794;2024-02-16T19:36:54;101051.75;;;12.63;93.29
84169;BME280;74295;50.146;8.794;2024-02-16T19:46:57;101058.94;;;12.69;93.34
84169;BME280;74295;50.146;8.794;2024-02-16T19:57:01;101062.97;;;12.67;93.81
84169;BME280;74295;50.146;8.794;2024-02-16T20:07:04;101079.78;;;12.64;94.04
84169;BME280;74295;50.146;8.794;2024-02-16T20:17:08;101083.00;;;12.61;93.96
84169;BME280;74295;50.146;8.794;2024-02-16T20:27:11;101093.38;;;12.64;94.32
84169;BME280;74295;50.146;8.794;2024-02-16T20:37:16;101093.19;;;12.54;94.62
84169;BME280;74295;50.146;8.794;2024-02-16T20:47:19;101121.63;;;12.63;94.35
84169;BME280;74295;50.146;8.794;2024-02-16T20:57:23;101133.84;;;12.60;94.60
84169;BME280;74295;50.146;8.794;2024-02-16T21:07:26;101149.78;;;12.57;94.49
84169;BME280;74295;50.146;8.794;2024-02-16T21:17:31;101153.13;;;12.47;95.03
84169;BME280;74295;50.146;8.794;2024-02-16T21:27:34;101176.91;;;12.40;95.78
84169;BME280;74295;50.146;8.794;2024-02-16T21:37:38;101188.25;;;12.37;95.87
84169;BME280;74295;50.146;8.794;2024-02-16T21:47:40;101206.34;;;12.32;95.88
84169;BME280;74295;50.146;8.794;2024-02-16T21:57:44;101221.47;;;12.28;96.25
84169;BME280;74295;50.146;8.794;2024-02-16T22:07:47;101245.34;;;12.26;96.55
84169;BME280;74295;50.146;8.794;2024-02-16T22:17:51;101252.53;;;12.20;96.79
84169;BME280;74295;50.146;8.794;2024-02-16T22:27:54;101268.16;;;12.25;95.33
84169;BME280;74295;50.146;8.794;2024-02-16T22:37:58;101279.38;;;12.28;92.26
84169;BME280;74295;50.146;8.794;2024-02-16T22:48:00;101297.69;;;12.21;91.85
84169;BME280;74295;50.146;8.794;2024-02-16T22:58:06;101311.00;;;12.11;91.10
84169;BME280;74295;50.146;8.794;2024-02-16T23:08:10;101326.81;;;12.03;90.93
84169;BME280;74295;50.146;8.794;2024-02-16T23:18:16;101334.28;;;12.07;87.46
84169;BME280;74295;50.146;8.794;2024-02-16T23:28:19;101356.50;;;12.04;88.21
84169;BME280;74295;50.146;8.794;2024-02-16T23:38:23;101359.53;;;11.96;88.04
84169;BME280;74295;50.146;8.794;2024-02-16T23:48:26;101359.16;;;11.93;86.60
84169;BME280;74295;50.146;8.794;2024-02-16T23:58:31;101388.81;;;11.94;85.84
